Time;durP1;ratioP1;P1;durP2;ratioP2;P2;SDS_P1;SDS_P2;PMS_P1;PMS_P2;Temp;Humidity;BMP_temperature;BMP_pressure;BME280_temperature;BME280_humidity;BME280_pressure;Samples;Min_cycle;Max_cycle;Signal;HPM_P1;HPM_P2
2022/05/15 00:02:05;;;;;;;17.58;6.25;;;16.70;99.90;;;;;;5016017;28;20191;-79
2022/05/15 00:04:30;;;;;;;18.30;6.97;;;16.70;99.90;;;;;;5016773;28;20252;-78
2022/05/15 00:06:56;;;;;;;32.03;7.00;;;16.70;99.90;;;;;;5017069;28;20705;-79
2022/05/15 00:09:22;;;;;;;26.65;7.35;;;16.50;99.90;;;;;;5016043;28;20184;-79
2022/05/15 00:11:48;;;;;;;20.45;7.22;;;16.50;99.90;;;;;;4999221;28;20176;-79
2022/05/15 00:14:13;;;;;;;31.48;7.05;;;16.50;99.90;;;;;;5017324;28;20218;-79
2022/05/15 00:16:39;;;;;;;13.35;6.43;;;16.60;99.90;;;;;;4999026;28;20199;-78
2022/05/15 00:19:06;;;;;;;15.50;6.03;;;16.50;99.90;;;;;;5016986;28;20168;-79
2022/05/15 00:21:32;;;;;;;11.45;5.85;;;16.40;99.90;;;;;;4998776;28;20180;-79
2022/05/15 00:23:59;;;;;;;23.25;7.30;;;16.50;99.90;;;;;;4998110;28;20540;-79
2022/05/15 00:26:25;;;;;;;25.83;7.05;;;16.40;99.90;;;;;;5000732;28;20316;-79
2022/05/15 00:28:51;;;;;;;18.20;7.30;;;16.30;99.90;;;;;;4998193;28;20165;-79
2022/05/15 00:31:16;;;;;;;14.63;6.22;;;16.40;99.90;;;;;;5015316;28;20635;-79
2022/05/15 00:33:44;;;;;;;17.50;7.22;;;16.30;99.90;;;;;;4999472;28;20230;-78
2022/05/15 00:36:09;;;;;;;21.90;7.15;;;16.40;99.90;;;;;;4998735;28;20214;-78
2022/05/15 00:38:35;;;;;;;13.70;7.00;;;16.40;99.90;;;;;;5015410;28;20622;-79
2022/05/15 00:41:00;;;;;;;20.77;7.65;;;16.30;99.90;;;;;;5015465;28;20691;-80
2022/05/15 00:43:46;;;;;;;25.40;7.15;;;16.30;99.90;;;;;;5015245;28;20673;-79
2022/05/15 00:46:31;;;;;;;16.27;7.63;;;16.20;99.90;;;;;;5015475;28;20200;-79
2022/05/15 00:49:00;;;;;;;16.27;6.63;;;16.20;99.90;;;;;;5015275;28;20169;-79
2022/05/15 00:51:36;;;;;;;16.58;6.63;;;16.10;99.90;;;;;;5015915;28;20273;-80
2022/05/15 00:54:30;;;;;;;13.77;6.75;;;16.00;99.90;;;;;;5015361;28;20607;-78
2022/05/15 00:57:04;;;;;;;22.10;6.75;;;16.00;99.90;;;;;;5031599;28;20191;-78
2022/05/15 00:59:37;;;;;;;26.85;7.68;;;15.90;99.90;;;;;;5024860;28;20726;-78
2022/05/15 01:02:03;;;;;;;16.52;8.30;;;15.80;99.90;;;;;;5014359;28;20171;-79
2022/05/15 01:04:31;;;;;;;18.52;7.38;;;15.80;99.90;;;;;;5014879;28;20177;-78
2022/05/15 01:06:56;;;;;;;15.35;6.75;;;16.00;99.90;;;;;;5015279;28;20177;-78
2022/05/15 01:09:22;;;;;;;20.02;7.22;;;16.10;99.90;;;;;;4997181;28;20184;-78
2022/05/15 01:11:49;;;;;;;20.67;7.05;;;16.10;99.90;;;;;;5014783;28;20203;-78
2022/05/15 01:14:18;;;;;;;37.35;8.93;;;16.10;99.90;;;;;;5022858;28;20164;-79
2022/05/15 01:16:43;;;;;;;23.40;8.45;;;16.20;99.90;;;;;;5015505;28;20184;-79
2022/05/15 01:19:09;;;;;;;23.75;7.95;;;16.00;99.90;;;;;;5014614;28;20640;-78
2022/05/15 01:21:40;;;;;;;28.80;8.25;;;15.90;99.90;;;;;;5014636;28;20169;-81
2022/05/15 01:24:07;;;;;;;26.08;7.85;;;16.00;99.90;;;;;;5014830;28;20178;-79
2022/05/15 01:26:35;;;;;;;13.63;7.45;;;15.90;99.90;;;;;;5014938;28;20188;-79
2022/05/15 01:29:01;;;;;;;18.55;7.82;;;15.90;99.90;;;;;;5014398;28;20187;-79
2022/05/15 01:31:27;;;;;;;19.65;8.27;;;15.80;99.90;;;;;;5014171;28;20180;-79
2022/05/15 01:33:53;;;;;;;21.75;8.38;;;15.90;99.90;;;;;;5014502;28;20191;-79
2022/05/15 01:36:21;;;;;;;15.50;7.43;;;16.00;99.90;;;;;;5014565;28;20669;-79
2022/05/15 01:38:47;;;;;;;22.15;8.95;;;16.00;99.90;;;;;;5014265;28;20266;-79
2022/05/15 01:41:13;;;;;;;17.65;7.03;;;15.90;99.90;;;;;;5014267;28;20302;-79
2022/05/15 01:43:41;;;;;;;26.80;7.75;;;15.80;99.90;;;;;;5014115;28;20251;-78
2022/05/15 01:46:07;;;;;;;22.02;8.05;;;15.90;99.90;;;;;;5013972;28;20196;-78
2022/05/15 01:48:33;;;;;;;30.98;7.88;;;15.80;99.90;;;;;;5013945;28;20168;-78
2022/05/15 01:50:59;;;;;;;13.40;7.40;;;15.70;99.90;;;;;;5014600;28;20161;-78
2022/05/15 01:53:25;;;;;;;26.35;7.35;;;15.40;99.90;;;;;;5014389;28;20179;-79
2022/05/15 01:55:52;;;;;;;19.52;7.72;;;15.50;99.90;;;;;;5013781;28;20196;-78
2022/05/15 01:58:17;;;;;;;17.13;7.32;;;15.60;99.90;;;;;;5014469;28;20161;-78
2022/05/15 02:00:44;;;;;;;31.40;8.13;;;15.60;99.90;;;;;;5014156;28;20665;-78
2022/05/15 02:03:10;;;;;;;15.90;7.15;;;15.40;99.90;;;;;;4997178;28;20205;-79
2022/05/15 02:05:36;;;;;;;14.30;7.95;;;15.40;99.90;;;;;;5014484;28;20173;-83
2022/05/15 02:08:02;;;;;;;25.48;9.27;;;15.50;99.90;;;;;;5014263;28;20525;-79
2022/05/15 02:10:29;;;;;;;11.35;7.40;;;15.40;99.90;;;;;;5014108;28;20173;-79
2022/05/15 02:12:54;;;;;;;14.73;6.45;;;15.50;99.90;;;;;;5014537;28;20168;-78
2022/05/15 02:15:20;;;;;;;16.88;6.90;;;15.40;99.90;;;;;;5014438;28;20621;-78
2022/05/15 02:17:46;;;;;;;20.13;8.02;;;15.30;99.90;;;;;;5013618;28;20580;-79
2022/05/15 02:20:12;;;;;;;20.35;8.00;;;15.40;99.90;;;;;;5013976;28;20204;-79
2022/05/15 02:22:39;;;;;;;20.38;7.70;;;15.20;99.90;;;;;;5014271;28;20186;-78
2022/05/15 02:25:11;;;;;;;25.42;8.50;;;15.20;99.90;;;;;;5019138;28;20637;-79
2022/05/15 02:27:36;;;;;;;26.75;8.27;;;15.10;99.90;;;;;;5024425;28;20271;-78
2022/05/15 02:30:05;;;;;;;18.85;9.00;;;15.10;99.90;;;;;;5029874;28;20169;-77
2022/05/15 02:32:30;;;;;;;24.00;8.70;;;15.30;99.90;;;;;;5013287;28;20195;-78
2022/05/15 02:34:56;;;;;;;12.60;7.95;;;15.20;99.90;;;;;;5013110;28;20571;-77
2022/05/15 02:37:22;;;;;;;22.45;9.13;;;15.10;99.90;;;;;;5017159;28;20189;-77
2022/05/15 02:39:47;;;;;;;22.30;8.48;;;15.10;99.90;;;;;;5014716;28;20219;-78
2022/05/15 02:42:13;;;;;;;28.77;8.65;;;15.20;99.90;;;;;;5014266;28;20259;-78
2022/05/15 02:44:39;;;;;;;15.07;7.82;;;15.10;99.90;;;;;;5013229;28;20198;-79
2022/05/15 02:47:05;;;;;;;22.25;8.27;;;15.10;99.90;;;;;;5013305;28;20553;-78
2022/05/15 02:52:15;;;;;;;14.38;8.05;;;14.80;99.90;;;;;;5013187;28;20183;-78
2022/05/15 02:54:41;;;;;;;27.77;8.38;;;14.80;99.90;;;;;;5013056;28;20173;-77
2022/05/15 02:57:08;;;;;;;32.80;8.77;;;14.80;99.90;;;;;;5013221;28;20653;-77
2022/05/15 02:59:34;;;;;;;24.88;7.85;;;14.90;99.90;;;;;;5012997;28;20219;-79
2022/05/15 03:02:00;;;;;;;18.50;8.00;;;15.00;99.90;;;;;;5013223;28;20164;-78
2022/05/15 03:04:27;;;;;;;17.92;8.25;;;14.80;99.90;;;;;;5013074;28;20169;-78
2022/05/15 03:06:53;;;;;;;22.00;8.75;;;14.90;99.90;;;;;;5013080;28;20246;-78
2022/05/15 03:09:19;;;;;;;25.85;8.35;;;14.80;99.90;;;;;;5012991;28;20180;-77
2022/05/15 03:11:45;;;;;;;19.85;9.50;;;14.70;99.90;;;;;;5013320;28;20609;-79
2022/05/15 03:14:11;;;;;;;30.98;8.93;;;14.60;99.90;;;;;;5019342;28;20171;-78
2022/05/15 03:16:37;;;;;;;22.50;8.65;;;14.50;99.90;;;;;;5031604;28;20171;-79
2022/05/15 03:19:02;;;;;;;16.85;8.45;;;14.70;99.90;;;;;;5028188;28;20700;-77
2022/05/15 03:21:28;;;;;;;13.70;8.35;;;14.80;99.90;;;;;;5013097;28;20208;-77
2022/05/15 03:23:57;;;;;;;22.23;8.65;;;14.80;99.90;;;;;;5013035;28;20160;-78
2022/05/15 03:26:24;;;;;;;28.90;7.97;;;14.70;99.90;;;;;;5013226;28;20303;-78
2022/05/15 03:28:50;;;;;;;30.10;9.73;;;14.60;99.90;;;;;;5012797;28;20165;-79
2022/05/15 03:31:16;;;;;;;18.85;8.48;;;14.40;99.90;;;;;;5012961;28;20169;-79
2022/05/15 03:33:42;;;;;;;28.42;9.35;;;14.40;99.90;;;;;;5012680;28;20171;-79
2022/05/15 03:36:10;;;;;;;31.92;8.65;;;14.30;99.90;;;;;;5012909;28;20200;-79
2022/05/15 03:38:40;;;;;;;22.60;9.38;;;14.20;99.90;;;;;;5012331;28;20634;-79
2022/05/15 03:41:06;;;;;;;20.88;9.20;;;14.30;99.90;;;;;;5011949;28;20208;-79
2022/05/15 03:43:33;;;;;;;17.48;8.90;;;14.50;99.90;;;;;;5012330;28;20188;-79
2022/05/15 03:45:58;;;;;;;33.45;9.90;;;14.60;99.90;;;;;;5011987;28;20195;-79
2022/05/15 03:48:24;;;;;;;19.02;9.95;;;14.60;99.90;;;;;;5012248;28;20165;-78
2022/05/15 03:50:50;;;;;;;33.20;8.75;;;14.80;99.90;;;;;;5012395;28;20175;-78
2022/05/15 03:53:15;;;;;;;25.13;10.15;;;14.60;99.90;;;;;;5012298;28;20247;-78
2022/05/15 03:55:41;;;;;;;17.95;8.98;;;14.60;99.90;;;;;;5012382;28;20201;-79
2022/05/15 03:58:07;;;;;;;15.85;8.48;;;14.50;99.90;;;;;;5012545;28;20247;-80
2022/05/15 04:00:34;;;;;;;21.75;9.95;;;14.40;99.90;;;;;;5012427;28;20227;-79
2022/05/15 04:03:00;;;;;;;27.75;9.45;;;14.30;99.90;;;;;;4995028;28;20518;-78
2022/05/15 04:05:27;;;;;;;19.95;9.70;;;14.40;99.90;;;;;;5012828;28;20160;-79
2022/05/15 04:07:53;;;;;;;21.38;9.80;;;14.50;99.90;;;;;;5012495;28;20258;-78
2022/05/15 04:10:22;;;;;;;22.90;9.77;;;14.50;99.90;;;;;;5012360;28;20173;-78
2022/05/15 04:12:47;;;;;;;20.65;9.73;;;14.40;99.90;;;;;;5012410;28;20248;-78
2022/05/15 04:15:14;;;;;;;19.65;8.68;;;14.50;99.90;;;;;;5012522;28;20252;-78
2022/05/15 04:17:42;;;;;;;14.68;8.93;;;14.50;99.90;;;;;;5012917;28;20184;-77
2022/05/15 04:20:10;;;;;;;16.65;8.98;;;14.50;99.90;;;;;;5015366;28;20200;-78
2022/05/15 04:22:35;;;;;;;24.02;9.10;;;14.50;99.90;;;;;;5015754;28;20223;-78
2022/05/15 04:25:01;;;;;;;23.63;9.32;;;14.50;99.90;;;;;;5015920;28;20629;-78
2022/05/15 04:27:27;;;;;;;19.60;9.43;;;14.60;99.90;;;;;;5015654;28;20185;-78
2022/05/15 04:29:53;;;;;;;27.17;10.65;;;14.60;99.90;;;;;;5015481;28;20168;-78
2022/05/15 04:32:18;;;;;;;27.25;9.85;;;14.80;99.90;;;;;;5015320;28;20203;-78
2022/05/15 04:34:44;;;;;;;27.50;10.88;;;14.90;99.90;;;;;;5016352;28;20173;-78
2022/05/15 04:37:10;;;;;;;47.97;11.73;;;14.90;99.90;;;;;;5015884;28;20271;-78
2022/05/15 04:39:35;;;;;;;26.20;9.30;;;14.90;99.90;;;;;;5016614;28;20208;-78
2022/05/15 04:42:01;;;;;;;20.58;10.20;;;14.70;99.90;;;;;;5016750;28;20194;-77
2022/05/15 04:44:27;;;;;;;21.60;8.68;;;14.80;99.90;;;;;;4999474;28;20183;-82
2022/05/15 04:46:53;;;;;;;23.30;10.13;;;14.70;99.90;;;;;;5017569;28;20200;-79
2022/05/15 04:49:19;;;;;;;27.38;10.68;;;14.80;99.90;;;;;;5017005;28;20251;-79
2022/05/15 04:51:44;;;;;;;17.90;8.40;;;14.80;99.90;;;;;;4999869;28;20263;-78
2022/05/15 04:54:10;;;;;;;21.63;9.52;;;14.70;99.90;;;;;;5016778;28;20251;-78
2022/05/15 04:56:36;;;;;;;22.58;9.18;;;14.70;99.90;;;;;;5016456;28;20542;-79
2022/05/15 04:59:02;;;;;;;29.10;8.68;;;14.90;99.90;;;;;;5016930;28;20172;-78
2022/05/15 05:01:28;;;;;;;24.50;9.82;;;14.90;99.90;;;;;;5015598;28;20284;-79
2022/05/15 05:03:55;;;;;;;23.25;9.80;;;14.90;99.90;;;;;;5015501;28;20213;-78
2022/05/15 05:06:21;;;;;;;27.70;10.13;;;14.90;99.90;;;;;;4997464;28;20192;-79
2022/05/15 05:08:48;;;;;;;23.38;9.38;;;15.00;99.90;;;;;;5015421;28;20618;-79
2022/05/15 05:11:13;;;;;;;21.95;9.88;;;15.10;99.90;;;;;;5016265;28;20168;-79
2022/05/15 05:13:39;;;;;;;26.98;8.88;;;15.10;99.90;;;;;;5014892;28;20171;-79
2022/05/15 05:16:05;;;;;;;27.17;9.15;;;15.20;99.90;;;;;;5015094;28;20279;-79
2022/05/15 05:18:30;;;;;;;20.33;8.85;;;15.30;99.90;;;;;;5014696;28;20192;-79
2022/05/15 05:20:57;;;;;;;17.40;8.95;;;15.20;99.90;;;;;;4997153;28;20244;-79
2022/05/15 05:23:22;;;;;;;31.13;9.27;;;15.30;99.90;;;;;;5014768;28;20173;-78
2022/05/15 05:25:48;;;;;;;20.15;9.82;;;15.50;99.90;;;;;;5017315;28;20169;-78
2022/05/15 05:28:15;;;;;;;16.05;9.35;;;15.60;99.90;;;;;;5015341;28;20176;-79
2022/05/15 05:30:42;;;;;;;15.10;8.80;;;15.50;99.90;;;;;;5017554;28;20168;-79
2022/05/15 05:33:09;;;;;;;22.10;9.85;;;15.70;99.90;;;;;;5026239;28;20164;-79
2022/05/15 05:35:36;;;;;;;26.13;9.50;;;15.80;99.90;;;;;;5038271;28;20161;-79
2022/05/15 05:38:02;;;;;;;23.88;9.50;;;15.90;99.90;;;;;;5017514;28;20216;-79
2022/05/15 05:40:28;;;;;;;31.77;9.98;;;15.90;99.90;;;;;;5014955;28;20204;-78
2022/05/15 05:42:54;;;;;;;14.13;9.25;;;16.00;99.90;;;;;;5014501;28;20169;-78
2022/05/15 05:45:19;;;;;;;19.13;10.38;;;15.90;99.90;;;;;;5014588;28;20173;-78
2022/05/15 05:47:50;;;;;;;16.02;8.88;;;16.10;99.90;;;;;;5014384;28;20572;-78
2022/05/15 05:50:18;;;;;;;26.42;9.88;;;16.20;99.90;;;;;;5014247;28;20626;-92
2022/05/15 05:52:44;;;;;;;17.25;9.10;;;16.50;99.90;;;;;;5014451;28;20187;-78
2022/05/15 05:55:12;;;;;;;22.08;9.02;;;16.40;99.90;;;;;;4998597;28;20168;-78
2022/05/15 05:57:38;;;;;;;24.75;9.50;;;16.50;99.90;;;;;;4998270;28;20188;-78
2022/05/15 06:00:06;;;;;;;20.35;9.60;;;16.40;99.90;;;;;;5014757;28;20204;-78
2022/05/15 06:02:32;;;;;;;15.63;8.52;;;16.40;99.90;;;;;;4996832;28;20176;-78
2022/05/15 06:04:57;;;;;;;11.20;8.45;;;16.50;99.90;;;;;;5014560;28;20165;-78
2022/05/15 06:07:26;;;;;;;19.40;9.35;;;16.70;99.90;;;;;;5014168;28;20188;-78
2022/05/15 06:09:52;;;;;;;31.33;9.80;;;16.60;99.90;;;;;;5013962;28;20172;-79
2022/05/15 06:12:23;;;;;;;15.30;9.05;;;16.90;99.90;;;;;;5013949;28;20696;-78
2022/05/15 06:14:50;;;;;;;25.25;9.60;;;17.00;99.90;;;;;;5013616;28;20172;-78
2022/05/15 06:17:20;;;;;;;15.40;9.75;;;17.20;99.90;;;;;;5013969;28;20199;-81
2022/05/15 06:19:46;;;;;;;24.50;9.32;;;17.00;99.90;;;;;;4997467;28;20214;-78
2022/05/15 06:22:12;;;;;;;16.65;10.32;;;17.10;99.90;;;;;;5013732;28;20255;-77
2022/05/15 06:24:37;;;;;;;30.50;9.98;;;17.30;99.90;;;;;;5013763;28;20172;-78
2022/05/15 06:27:03;;;;;;;18.00;9.98;;;17.40;99.90;;;;;;5013467;28;20215;-77
2022/05/15 06:29:30;;;;;;;19.50;9.98;;;17.50;99.90;;;;;;5014464;28;20252;-78
2022/05/15 06:31:56;;;;;;;21.75;10.45;;;17.40;99.90;;;;;;5014297;28;20573;-86
2022/05/15 06:34:22;;;;;;;17.90;9.80;;;17.50;99.90;;;;;;5014218;28;20310;-78
2022/05/15 06:36:48;;;;;;;20.05;10.35;;;17.60;99.90;;;;;;5014039;28;20184;-87
2022/05/15 06:39:14;;;;;;;20.10;10.00;;;17.80;99.90;;;;;;5014203;28;20208;-77
2022/05/15 06:41:40;;;;;;;22.10;9.65;;;17.70;99.90;;;;;;5013681;28;20200;-78
2022/05/15 06:44:06;;;;;;;16.35;9.90;;;17.80;99.90;;;;;;5014314;28;20243;-79
2022/05/15 06:46:32;;;;;;;16.63;9.35;;;18.00;99.90;;;;;;5014369;28;20208;-78
2022/05/15 06:48:58;;;;;;;18.70;9.02;;;17.80;99.90;;;;;;5016458;28;20173;-78
2022/05/15 06:51:24;;;;;;;13.45;9.20;;;17.90;99.90;;;;;;5024634;28;20182;-78
2022/05/15 06:53:50;;;;;;;17.40;8.68;;;18.00;99.90;;;;;;5029234;28;20172;-77
2022/05/15 06:59:02;;;;;;;23.10;8.25;;;18.20;99.90;;;;;;5027535;28;20187;-78
2022/05/15 07:01:29;;;;;;;28.88;8.27;;;18.30;99.90;;;;;;5029809;28;20203;-90
2022/05/15 07:03:58;;;;;;;12.32;8.13;;;18.60;99.90;;;;;;5033288;28;20169;-79
2022/05/15 07:06:25;;;;;;;7.13;6.18;;;18.80;99.90;;;;;;5004197;28;20184;-86
2022/05/15 07:09:02;;;;;;;12.63;7.13;;;19.00;99.90;;;;;;5027648;28;20168;-79
2022/05/15 07:11:28;;;;;;;9.05;6.63;;;19.60;99.90;;;;;;5021322;28;20168;-82
2022/05/15 07:13:54;;;;;;;11.13;6.55;;;20.40;99.90;;;;;;5019792;28;20867;-81
2022/05/15 07:16:20;;;;;;;16.25;5.65;;;21.40;99.90;;;;;;5014418;28;20216;-87
2022/05/15 07:18:45;;;;;;;8.88;5.43;;;21.80;99.90;;;;;;4997200;28;20214;-84
2022/05/15 07:21:11;;;;;;;10.65;4.70;;;22.20;99.90;;;;;;5014244;28;20227;-82
2022/05/15 07:23:37;;;;;;;9.60;4.70;;;22.80;99.90;;;;;;4996186;28;20259;-83
2022/05/15 07:26:03;;;;;;;13.40;5.47;;;23.20;99.90;;;;;;4994856;28;20188;-81
2022/05/15 07:28:29;;;;;;;8.73;4.93;;;23.10;99.90;;;;;;5012537;28;20237;-82
2022/05/15 07:30:55;;;;;;;11.00;4.60;;;23.10;99.90;;;;;;4995290;28;20298;-81
2022/05/15 07:33:23;;;;;;;7.40;4.68;;;23.00;99.90;;;;;;5013130;28;20200;-81
2022/05/15 07:35:49;;;;;;;18.65;5.35;;;23.70;99.90;;;;;;4995188;28;20172;-82
2022/05/15 07:38:16;;;;;;;10.73;5.13;;;24.00;99.90;;;;;;5013136;28;20231;-82
2022/05/15 07:40:42;;;;;;;10.55;4.88;;;23.90;99.90;;;;;;4996945;28;20223;-82
2022/05/15 07:43:10;;;;;;;12.77;4.30;;;23.30;99.90;;;;;;4998335;28;20189;-85
2022/05/15 07:45:36;;;;;;;10.75;5.10;;;22.90;99.90;;;;;;5013020;28;20230;-83
2022/05/15 07:48:02;;;;;;;17.23;4.57;;;22.20;99.90;;;;;;4995188;28;20660;-83
2022/05/15 07:50:28;;;;;;;9.50;5.00;;;21.90;99.90;;;;;;5012692;28;20640;-83
2022/05/15 07:52:54;;;;;;;11.30;4.80;;;21.80;99.90;;;;;;4995254;28;20192;-83
2022/05/15 07:55:19;;;;;;;12.43;5.20;;;21.90;99.90;;;;;;4998269;28;20168;-83
2022/05/15 07:57:45;;;;;;;11.35;5.20;;;22.00;99.90;;;;;;4998911;28;20229;-83
2022/05/15 08:00:14;;;;;;;14.60;4.90;;;21.70;99.90;;;;;;4998923;28;20215;-83
2022/05/15 08:02:40;;;;;;;9.43;5.22;;;21.60;99.90;;;;;;5017109;28;20165;-83
2022/05/15 08:08:02;;;;;;;16.65;5.53;;;21.50;99.90;;;;;;5017056;28;20680;-83
2022/05/15 08:10:34;;;;;;;13.40;4.80;;;21.40;99.90;;;;;;5000040;28;20211;-85
2022/05/15 08:13:00;;;;;;;16.50;5.50;;;21.50;99.90;;;;;;5016177;28;20164;-84
2022/05/15 08:15:27;;;;;;;8.82;4.43;;;21.40;99.90;;;;;;4998910;28;20169;-83
2022/05/15 08:17:53;;;;;;;7.70;4.07;;;21.50;99.90;;;;;;4998268;28;20664;-85
2022/05/15 08:25:48;;;;;;;4.90;4.32;;;22.00;99.90;;;;;;5015830;28;20183;-82
2022/05/15 08:28:15;;;;;;;8.43;3.70;;;21.90;99.90;;;;;;4998702;28;20163;-83
2022/05/15 08:30:42;;;;;;;13.32;4.28;;;21.90;99.90;;;;;;4998385;28;20191;-83
2022/05/15 08:33:10;;;;;;;9.77;3.83;;;22.10;99.90;;;;;;5015855;28;20172;-83
2022/05/15 08:35:36;;;;;;;6.57;3.22;;;22.30;99.90;;;;;;4998161;28;20518;-83
2022/05/15 08:38:02;;;;;;;10.95;3.17;;;22.60;99.90;;;;;;5016229;28;20212;-83
2022/05/15 08:40:47;;;;;;;12.05;3.83;;;22.80;99.90;;;;;;4998574;28;20667;-82
2022/05/15 08:43:13;;;;;;;16.27;3.33;;;22.90;99.90;;;;;;5015999;28;20167;-88
2022/05/15 08:45:42;;;;;;;7.75;2.80;;;22.90;99.90;;;;;;5020040;28;20586;-94
2022/05/15 08:48:12;;;;;;;8.63;2.30;;;23.00;99.90;;;;;;5000882;28;20168;-85
2022/05/15 08:50:52;;;;;;;8.00;2.88;;;23.10;99.90;;;;;;5008783;28;20731;-84
2022/05/15 08:53:28;;;;;;;5.45;2.58;;;23.00;99.90;;;;;;4998822;28;20181;-88
2022/05/15 08:55:57;;;;;;;4.55;2.58;;;23.10;99.90;;;;;;4979121;28;20164;-89
2022/05/15 08:58:30;;;;;;;7.20;2.95;;;23.00;99.90;;;;;;4979857;28;20169;-90
2022/05/15 09:00:56;;;;;;;12.02;2.97;;;23.10;99.90;;;;;;4980686;28;20200;-91
2022/05/15 09:03:31;;;;;;;5.65;2.53;;;23.20;99.90;;;;;;4990787;28;20182;-86
2022/05/15 09:06:01;;;;;;;6.60;2.13;;;23.30;99.90;;;;;;5019332;28;20199;-90
2022/05/15 09:08:49;;;;;;;6.97;2.78;;;23.40;99.90;;;;;;5018547;28;20164;-89
2022/05/15 09:11:30;;;;;;;12.23;4.03;;;23.60;99.90;;;;;;5018910;28;20168;-90
2022/05/15 09:14:19;;;;;;;17.83;2.97;;;23.90;99.90;;;;;;5025606;28;20183;-87
2022/05/15 09:16:57;;;;;;;11.43;2.35;;;23.80;99.90;;;;;;5030752;28;20684;-94
2022/05/15 09:19:24;;;;;;;5.60;1.95;;;23.90;99.90;;;;;;5015900;28;20179;-88
2022/05/15 09:21:54;;;;;;;3.03;2.10;;;23.80;99.90;;;;;;5042850;28;20171;-95
2022/05/15 09:24:45;;;;;;;3.53;1.88;;;23.80;99.90;;;;;;5013575;28;20561;-92
2022/05/15 09:27:21;;;;;;;3.22;1.85;;;23.90;99.90;;;;;;5020181;28;20184;-91
2022/05/15 09:29:58;;;;;;;10.65;2.20;;;23.90;99.90;;;;;;5019100;28;20180;-90
2022/05/15 09:32:30;;;;;;;13.48;2.83;;;24.10;99.90;;;;;;5001955;28;20168;-88
2022/05/15 09:34:59;;;;;;;6.70;2.40;;;24.30;99.90;;;;;;5014404;28;20190;-88
2022/05/15 09:40:40;;;;;;;7.25;2.00;;;24.10;99.90;;;;;;5022641;28;20281;-91
2022/05/15 09:43:32;;;;;;;4.68;1.90;;;24.30;99.90;;;;;;5017586;28;20203;-85
2022/05/15 09:46:19;;;;;;;8.88;1.77;;;24.10;99.90;;;;;;5000114;28;20280;-94
2022/05/15 09:48:51;;;;;;;7.05;2.53;;;24.10;99.90;;;;;;4999167;28;20184;-83
2022/05/15 09:51:43;;;;;;;6.90;2.17;;;24.10;99.90;;;;;;5021705;28;20193;-81
2022/05/15 09:54:26;;;;;;;7.60;2.20;;;24.10;99.90;;;;;;5028463;28;20554;-81
2022/05/15 09:57:22;;;;;;;7.05;2.30;;;24.10;99.90;;;;;;5031108;28;20260;-82
2022/05/15 09:59:55;;;;;;;6.65;2.35;;;24.30;99.90;;;;;;5024627;28;20195;-93
2022/05/15 10:02:23;;;;;;;11.73;2.05;;;24.50;99.90;;;;;;4998947;28;20271;-86
2022/05/15 10:04:51;;;;;;;5.53;1.67;;;24.40;99.90;;;;;;4997758;28;20171;-89
2022/05/15 10:07:37;;;;;;;7.95;2.05;;;24.50;99.90;;;;;;5016603;28;20188;-87
2022/05/15 10:10:22;;;;;;;8.60;2.45;;;24.70;99.90;;;;;;5015495;28;20652;-85
2022/05/15 10:12:54;;;;;;;4.45;2.05;;;24.90;99.80;;;;;;4997005;28;20238;-85
2022/05/15 10:15:21;;;;;;;1.75;1.65;;;24.80;99.30;;;;;;5013921;28;20200;-83
2022/05/15 10:18:03;;;;;;;7.35;2.03;;;24.70;99.80;;;;;;4997229;28;20192;-86
2022/05/15 10:20:34;;;;;;;22.25;2.45;;;24.70;98.80;;;;;;4997759;28;20212;-84
2022/05/15 10:23:05;;;;;;;8.05;1.95;;;24.70;99.10;;;;;;4997574;28;20192;-86
2022/05/15 10:25:59;;;;;;;20.65;2.15;;;24.90;98.70;;;;;;5009574;28;20203;-85
2022/05/15 10:28:33;;;;;;;3.90;1.63;;;25.10;98.40;;;;;;5018769;28;20160;-85
2022/05/15 10:31:22;;;;;;;5.55;2.03;;;25.10;98.20;;;;;;5035299;28;20163;-92
2022/05/15 10:33:56;;;;;;;7.07;1.60;;;24.90;98.60;;;;;;4999427;28;20219;-86
2022/05/15 10:36:31;;;;;;;5.35;1.92;;;25.10;98.70;;;;;;4997813;28;20191;-91
2022/05/15 10:39:24;;;;;;;5.35;1.80;;;25.40;98.30;;;;;;4999047;28;20238;-87
2022/05/15 10:42:16;;;;;;;6.15;1.55;;;25.60;98.10;;;;;;4999112;28;20199;-88
2022/05/15 10:45:25;;;;;;;9.13;1.70;;;25.50;97.00;;;;;;5027959;28;20177;-92
2022/05/15 10:48:28;;;;;;;59.05;4.38;;;25.50;97.50;;;;;;5002573;28;20211;-87
2022/05/15 10:51:12;;;;;;;4.95;2.00;;;25.60;97.00;;;;;;5015142;28;20208;-87
2022/05/15 10:57:30;;;;;;;2.03;1.70;;;25.50;97.40;;;;;;5029797;28;20217;-84
2022/05/15 11:00:24;;;;;;;4.13;1.60;;;25.50;97.20;;;;;;5015045;28;20208;-80
2022/05/15 11:03:18;;;;;;;6.30;1.63;;;25.50;97.50;;;;;;5038094;28;20153;-83
2022/05/15 11:06:21;;;;;;;19.45;2.45;;;25.50;97.40;;;;;;5036967;28;20189;-82
2022/05/15 11:09:10;;;;;;;4.43;1.63;;;25.60;97.70;;;;;;5037985;28;20204;-82
2022/05/15 11:12:13;;;;;;;4.40;1.60;;;25.70;97.00;;;;;;5020685;28;20192;-84
2022/05/15 11:15:26;;;;;;;14.10;2.78;;;25.80;97.20;;;;;;5034781;28;20232;-81
2022/05/15 11:18:38;;;;;;;5.78;1.98;;;25.60;97.30;;;;;;5030993;28;20200;-82
2022/05/15 11:21:17;;;;;;;5.22;1.98;;;25.50;97.30;;;;;;5006758;28;20227;-82
2022/05/15 11:24:04;;;;;;;6.05;2.10;;;25.60;97.40;;;;;;5027748;28;20267;-83
2022/05/15 11:26:41;;;;;;;4.60;2.88;;;25.90;95.80;;;;;;5015389;28;20224;-89
2022/05/15 11:29:26;;;;;;;4.43;1.70;;;26.00;95.40;;;;;;5007131;28;20160;-85
2022/05/15 11:31:56;;;;;;;1.63;1.50;;;26.10;94.90;;;;;;5039346;28;20180;-82
2022/05/15 11:35:04;;;;;;;15.93;1.67;;;26.00;95.30;;;;;;5020005;28;20173;-87
2022/05/15 11:37:39;;;;;;;16.90;1.52;;;26.00;95.90;;;;;;5013753;28;20183;-88
2022/05/15 11:40:13;;;;;;;6.57;1.52;;;25.90;95.30;;;;;;5016822;28;20226;-89
2022/05/15 11:42:38;;;;;;;5.78;1.95;;;25.90;95.50;;;;;;5028187;28;20165;-91
2022/05/15 11:45:30;;;;;;;2.40;1.35;;;26.20;96.00;;;;;;5020680;28;20231;-86
2022/05/15 11:48:03;;;;;;;6.78;1.60;;;26.00;95.60;;;;;;5001481;28;20232;-90
2022/05/15 11:50:35;;;;;;;5.78;2.10;;;26.10;95.60;;;;;;5019583;28;20176;-91
2022/05/15 11:53:37;;;;;;;11.43;1.52;;;26.20;95.70;;;;;;5003679;28;20211;-85
2022/05/15 11:56:28;;;;;;;4.90;1.92;;;26.30;96.60;;;;;;4999917;28;20270;-92
2022/05/15 11:59:02;;;;;;;6.63;1.60;;;26.40;96.00;;;;;;5003315;28;20164;-87
2022/05/15 12:01:38;;;;;;;10.20;2.20;;;26.30;96.30;;;;;;5001782;28;20207;-90
2022/05/15 12:04:23;;;;;;;2.63;1.73;;;26.10;96.30;;;;;;5021060;28;20236;-87
2022/05/15 12:06:58;;;;;;;5.35;1.40;;;25.90;96.20;;;;;;5002331;28;20262;-88
2022/05/15 12:09:51;;;;;;;2.22;2.03;;;26.10;96.10;;;;;;5002985;28;20195;-89
2022/05/15 12:12:20;;;;;;;11.30;1.70;;;26.10;96.90;;;;;;5002639;28;20187;-89
2022/05/15 12:15:06;;;;;;;9.77;1.73;;;26.10;96.40;;;;;;5004256;28;20192;-86
2022/05/15 12:17:35;;;;;;;1.70;1.60;;;26.10;96.00;;;;;;5017311;28;20196;-85
2022/05/15 12:20:29;;;;;;;9.32;2.22;;;26.00;96.00;;;;;;4999121;28;20665;-90
2022/05/15 12:23:15;;;;;;;5.28;1.67;;;26.30;96.40;;;;;;5016527;28;20173;-87
2022/05/15 12:25:57;;;;;;;10.55;1.83;;;26.20;96.30;;;;;;4999125;28;20173;-90
2022/05/15 12:31:37;;;;;;;6.20;2.35;;;26.30;96.70;;;;;;5016692;28;20218;-85
2022/05/15 12:34:45;;;;;;;6.20;2.30;;;26.00;96.80;;;;;;5016782;28;20636;-84
2022/05/15 12:37:17;;;;;;;14.63;2.50;;;26.10;96.90;;;;;;4998680;28;20584;-83
2022/05/15 12:39:46;;;;;;;7.57;1.83;;;26.20;96.60;;;;;;4997897;28;20188;-86
2022/05/15 12:42:31;;;;;;;5.65;1.80;;;26.40;96.00;;;;;;5016369;28;20183;-86
2022/05/15 12:45:20;;;;;;;4.65;1.60;;;26.60;95.90;;;;;;4998814;28;20172;-84
2022/05/15 12:48:10;;;;;;;1.85;1.50;;;26.60;96.00;;;;;;4998792;28;20194;-89
2022/05/15 12:50:48;;;;;;;3.92;1.90;;;26.70;95.60;;;;;;4999405;28;20614;-85
2022/05/15 12:53:29;;;;;;;5.28;1.67;;;26.80;95.70;;;;;;4999477;28;20244;-89
2022/05/15 12:56:10;;;;;;;34.05;2.47;;;27.00;95.20;;;;;;4999110;28;20168;-89
2022/05/15 12:58:38;;;;;;;3.55;1.40;;;27.20;95.30;;;;;;5017725;28;20161;-91
2022/05/15 13:01:04;;;;;;;10.52;1.98;;;27.00;95.40;;;;;;4999211;28;20212;-86
2022/05/15 13:03:30;;;;;;;4.90;1.65;;;27.00;95.10;;;;;;4998142;28;20533;-85
2022/05/15 13:05:59;;;;;;;3.08;2.20;;;27.10;95.20;;;;;;4998067;28;20255;-86
2022/05/15 13:08:25;;;;;;;11.00;2.13;;;27.10;95.00;;;;;;4998513;28;20256;-88
2022/05/15 13:11:02;;;;;;;6.75;1.85;;;27.20;94.70;;;;;;5016120;28;20633;-88
2022/05/15 13:13:36;;;;;;;14.02;1.70;;;27.30;94.70;;;;;;4998151;28;20172;-86
2022/05/15 13:16:05;;;;;;;4.03;1.45;;;27.40;94.70;;;;;;4998248;28;20188;-84
2022/05/15 13:18:35;;;;;;;4.97;1.85;;;27.70;94.90;;;;;;4998685;28;20259;-87
2022/05/15 13:21:05;;;;;;;17.48;2.97;;;28.00;94.00;;;;;;4999167;28;20304;-87
2022/05/15 13:23:41;;;;;;;4.97;1.90;;;27.60;93.80;;;;;;4998656;28;20280;-91